Main page
METAR-TAF:

METAR-TAF

Airports :

Winnipeg James Armstrong Richardson International Airport

Winnipeg, Manitoba, Canada

latitude: 49-54N, longitude: 097-14W, elevation: 239 m

Current weather observation

The report was made 31 minutes ago, at 11:00 UTC
Wind 10 kt from the South
Temperature 11°C
Humidity 87%
Pressure 1015 hPa
Visibility: 24.1 km
Clear sky

METAR: CYWG 151100Z 19010KT 15SM SKC 11/09 A2996 RMK SLP150

Time: 06:31 (11:31 UTC)

Forecast

The report was made 5 hours and 49 minutes ago, at 05:42 UTC
Forecast valid from 15 at 06 UTC to 16 at 06 UTC
Wind 3 kt from variable directions
Visibility: 10 km
Few clouds at a height of 20000 ft
Becoming
from 15 at 08 UTC to 15 at 10 UTC
Wind 12 kt from the South
From 15 at 1800 UTC
Wind 15 kt from the South/Southwest
Visibility: 10 km
Clear sky

TAF: CYWG 150542Z 1506/1606 VRB03KT P6SM FEW200 BECMG 1508/1510 18012KT FM151800 20015KT P6SM SKC RMK NXT FCST BY 151200Z

Weather observations and forecasts of more than 4000 airports (METAR and TAF reports).

The available stations are represented by yellow and red dots on the map.

Hover mouse over dot to see the name of the station.

Then click to see weather observations and forecasts.

To change the map : click on the green buttons with a black cross to zoom in, on the green button with a dash to zoom out, or on the green arrows for adjacent maps.


METAR-TAF: